Time;durP1;ratioP1;P1;durP2;ratioP2;P2;SDS_P1;SDS_P2;PMS_P1;PMS_P2;Temp;Humidity;BMP_temperature;BMP_pressure;BME280_temperature;BME280_humidity;BME280_pressure;Samples;Min_cycle;Max_cycle;Signal;HPM_P1;HPM_P2
2023/12/21 00:00:18;;;;;;;2.30;2.20;;;5.80;99.90;;;;;;5047887;28;20210;-67
2023/12/21 00:02:46;;;;;;;2.35;2.15;;;5.80;99.90;;;;;;5047950;28;20289;-67
2023/12/21 00:05:13;;;;;;;6.25;2.20;;;5.80;99.90;;;;;;5038291;28;20227;-67
2023/12/21 00:07:39;;;;;;;2.60;2.00;;;5.80;99.90;;;;;;5069716;22;20738;-63
2023/12/21 00:10:07;;;;;;;2.70;2.45;;;5.80;99.90;;;;;;5072409;28;20208;-63
2023/12/21 00:12:34;;;;;;;2.97;2.78;;;5.80;99.90;;;;;;5072886;28;20209;-63
2023/12/21 00:15:01;;;;;;;2.00;1.90;;;5.80;99.90;;;;;;5081597;28;20207;-63
2023/12/21 00:17:28;;;;;;;2.53;2.33;;;5.80;99.90;;;;;;5072176;28;20585;-63
2023/12/21 00:19:56;;;;;;;2.88;2.67;;;5.80;99.90;;;;;;5051799;28;20210;-63
2023/12/21 00:22:23;;;;;;;5.13;1.90;;;5.80;99.90;;;;;;5052288;28;20293;-63
2023/12/21 00:24:50;;;;;;;2.25;2.15;;;5.80;99.90;;;;;;5053144;28;20206;-63
2023/12/21 00:27:16;;;;;;;2.40;2.22;;;5.80;99.90;;;;;;5052980;28;20210;-63
2023/12/21 00:29:43;;;;;;;2.40;2.00;;;5.80;99.90;;;;;;5052913;28;20202;-63
2023/12/21 00:32:10;;;;;;;2.30;2.10;;;5.80;99.90;;;;;;5052978;28;20596;-63
2023/12/21 00:34:37;;;;;;;2.45;2.25;;;5.80;99.90;;;;;;5052864;28;20297;-64
2023/12/21 00:37:05;;;;;;;2.45;2.25;;;5.80;99.90;;;;;;5052799;28;20286;-63
2023/12/21 00:39:32;;;;;;;2.63;1.83;;;5.80;99.90;;;;;;5052611;28;20306;-64
2023/12/21 00:41:59;;;;;;;1.80;1.70;;;5.80;99.90;;;;;;5049126;28;20644;-63
2023/12/21 00:44:25;;;;;;;3.17;2.20;;;5.80;99.90;;;;;;5052427;28;20293;-63
2023/12/21 00:46:52;;;;;;;1.75;1.65;;;5.80;99.90;;;;;;5052452;28;20253;-63
2023/12/21 00:49:19;;;;;;;2.10;1.90;;;5.80;99.90;;;;;;5052415;28;20389;-64
2023/12/21 00:51:46;;;;;;;1.52;1.45;;;5.80;99.90;;;;;;5052801;28;20297;-63
2023/12/21 00:54:14;;;;;;;1.48;1.30;;;5.80;99.90;;;;;;5052052;28;20213;-63
2023/12/21 00:56:41;;;;;;;4.28;1.45;;;5.90;99.90;;;;;;5052063;28;20636;-63
2023/12/21 00:59:08;;;;;;;1.58;1.48;;;5.90;99.90;;;;;;5052156;28;20229;-63
2023/12/21 01:01:35;;;;;;;1.60;1.50;;;5.90;99.90;;;;;;5052426;28;20229;-63
2023/12/21 01:04:01;;;;;;;1.75;1.40;;;5.90;99.90;;;;;;5052796;28;20285;-63
2023/12/21 01:06:28;;;;;;;1.48;1.40;;;5.90;99.90;;;;;;5052487;28;20226;-63
2023/12/21 01:08:55;;;;;;;1.98;1.85;;;5.90;99.90;;;;;;5053128;28;20266;-63
2023/12/21 01:11:23;;;;;;;1.20;1.20;;;5.90;99.90;;;;;;5053000;28;20583;-63
2023/12/21 01:13:50;;;;;;;1.55;1.45;;;5.90;99.90;;;;;;5052300;28;20672;-63
2023/12/21 01:16:17;;;;;;;1.60;1.50;;;5.90;99.90;;;;;;5051877;28;20226;-63
2023/12/21 01:18:44;;;;;;;1.27;1.20;;;5.90;99.90;;;;;;5051747;28;20222;-63
2023/12/21 01:21:11;;;;;;;1.38;1.30;;;5.90;99.90;;;;;;5052214;28;20206;-63
2023/12/21 01:23:37;;;;;;;1.40;1.40;;;5.90;99.90;;;;;;5051916;28;20298;-63
2023/12/21 01:26:04;;;;;;;1.20;1.10;;;5.90;99.90;;;;;;5051991;28;20233;-63
2023/12/21 01:28:33;;;;;;;1.10;1.08;;;5.90;99.90;;;;;;5051489;28;20301;-63
2023/12/21 01:30:59;;;;;;;1.38;1.05;;;6.00;99.90;;;;;;5051997;28;20259;-63
2023/12/21 01:33:26;;;;;;;1.65;1.52;;;6.00;99.90;;;;;;5051556;28;20616;-63
2023/12/21 01:35:53;;;;;;;1.50;1.40;;;6.00;99.90;;;;;;5050947;28;20201;-65
2023/12/21 01:38:20;;;;;;;1.40;1.30;;;6.00;99.90;;;;;;5052078;28;20613;-63
2023/12/21 01:40:47;;;;;;;1.10;1.10;;;6.00;99.90;;;;;;5052135;28;20212;-63
2023/12/21 01:43:13;;;;;;;2.30;1.40;;;6.00;99.90;;;;;;5052256;28;20297;-63
2023/12/21 01:45:42;;;;;;;1.40;1.38;;;6.00;99.90;;;;;;5052183;28;20222;-63
2023/12/21 01:48:10;;;;;;;2.05;1.95;;;6.10;99.90;;;;;;5051894;28;20599;-63
2023/12/21 01:50:37;;;;;;;3.13;1.52;;;6.10;99.90;;;;;;5052222;28;20241;-63
2023/12/21 01:53:05;;;;;;;1.15;1.10;;;6.10;99.90;;;;;;5052113;28;20199;-63
2023/12/21 01:55:32;;;;;;;1.02;1.02;;;6.10;99.90;;;;;;5052243;28;20225;-63
2023/12/21 01:58:00;;;;;;;1.25;1.20;;;6.10;99.90;;;;;;5051657;28;20317;-63
2023/12/21 02:00:27;;;;;;;0.70;0.70;;;6.10;99.90;;;;;;5052265;28;20206;-63
2023/12/21 02:02:55;;;;;;;1.85;1.00;;;6.10;99.90;;;;;;5052175;28;20292;-63
2023/12/21 02:05:22;;;;;;;1.90;0.90;;;6.10;99.90;;;;;;5051819;28;20744;-63
2023/12/21 02:07:49;;;;;;;1.70;1.60;;;6.10;99.90;;;;;;5051746;28;20660;-63
2023/12/21 02:10:16;;;;;;;0.80;0.70;;;6.10;99.90;;;;;;5051584;28;20639;-63
2023/12/21 02:12:43;;;;;;;0.70;0.70;;;6.10;99.90;;;;;;5051259;28;20213;-63
2023/12/21 02:15:10;;;;;;;1.40;0.70;;;6.10;99.90;;;;;;5050915;28;20693;-63
2023/12/21 02:17:39;;;;;;;1.23;0.70;;;6.10;99.90;;;;;;5050836;28;20716;-63
2023/12/21 02:20:08;;;;;;;0.65;0.65;;;6.20;99.90;;;;;;5051641;28;20643;-63
2023/12/21 02:22:37;;;;;;;1.15;0.75;;;6.10;99.90;;;;;;5051433;28;20206;-63
2023/12/21 02:25:07;;;;;;;0.70;0.70;;;6.20;99.90;;;;;;5051302;28;20214;-63
2023/12/21 02:27:34;;;;;;;0.73;0.73;;;6.20;99.90;;;;;;5051515;28;20222;-63
2023/12/21 02:30:01;;;;;;;0.85;0.57;;;6.20;99.90;;;;;;5051524;28;20206;-63
2023/12/21 02:32:28;;;;;;;0.63;0.60;;;6.10;99.90;;;;;;5051473;28;20217;-62
2023/12/21 02:34:54;;;;;;;1.23;0.68;;;6.10;99.90;;;;;;5051575;28;20214;-63
2023/12/21 02:37:21;;;;;;;0.93;0.60;;;6.10;99.90;;;;;;5051338;28;20699;-63
2023/12/21 02:39:48;;;;;;;0.90;0.90;;;6.10;99.90;;;;;;5051282;28;20867;-63
2023/12/21 02:42:16;;;;;;;0.73;0.73;;;6.10;99.90;;;;;;5051517;28;20210;-63
2023/12/21 02:44:43;;;;;;;0.60;0.60;;;6.10;99.90;;;;;;5053148;28;20206;-63
2023/12/21 02:47:10;;;;;;;1.20;0.70;;;6.10;99.90;;;;;;5054200;28;20226;-63
2023/12/21 02:49:36;;;;;;;1.00;0.63;;;6.10;99.90;;;;;;5050972;28;20226;-63
2023/12/21 02:52:04;;;;;;;0.60;0.60;;;6.10;99.90;;;;;;5055400;28;20202;-63
2023/12/21 02:54:31;;;;;;;0.80;0.77;;;6.10;99.90;;;;;;5055449;28;20760;-63
2023/12/21 02:56:58;;;;;;;0.73;0.73;;;6.10;99.90;;;;;;5055387;28;20669;-63
2023/12/21 02:59:27;;;;;;;0.68;0.68;;;6.10;99.90;;;;;;5055239;28;20236;-63
2023/12/21 03:01:54;;;;;;;0.90;0.90;;;6.20;99.90;;;;;;5055458;28;20216;-63
2023/12/21 03:04:20;;;;;;;0.70;0.60;;;6.10;99.90;;;;;;5055300;28;20220;-63
2023/12/21 03:06:47;;;;;;;1.38;1.00;;;6.20;99.90;;;;;;5055202;28;20228;-63
2023/12/21 03:09:14;;;;;;;0.80;0.77;;;6.20;99.90;;;;;;5054867;28;20264;-63
2023/12/21 03:11:41;;;;;;;0.70;0.70;;;6.20;99.90;;;;;;5055230;28;20209;-63
2023/12/21 03:14:08;;;;;;;1.02;1.02;;;6.20;99.90;;;;;;5055046;28;20234;-63
2023/12/21 03:16:36;;;;;;;0.45;0.45;;;6.20;99.90;;;;;;5054918;28;20282;-64
2023/12/21 03:19:03;;;;;;;0.70;0.70;;;6.20;99.90;;;;;;5054595;28;20230;-63
2023/12/21 03:21:30;;;;;;;0.82;0.82;;;6.20;99.90;;;;;;5056129;28;20210;-63
2023/12/21 03:23:57;;;;;;;1.05;0.77;;;6.20;99.90;;;;;;5055271;28;20217;-63
2023/12/21 03:26:24;;;;;;;0.70;0.70;;;6.20;99.90;;;;;;5054697;28;20233;-64
2023/12/21 03:28:51;;;;;;;0.77;0.77;;;6.20;99.90;;;;;;5054529;28;20658;-63
2023/12/21 03:31:18;;;;;;;1.63;1.15;;;6.20;99.90;;;;;;5054808;28;20293;-63
2023/12/21 03:33:46;;;;;;;1.23;0.77;;;6.20;99.90;;;;;;5054634;28;20214;-63
2023/12/21 03:36:13;;;;;;;1.45;1.00;;;6.20;99.90;;;;;;5055028;28;20210;-63
2023/12/21 03:38:40;;;;;;;1.05;0.95;;;6.30;99.90;;;;;;5054484;28;20252;-63
2023/12/21 03:41:07;;;;;;;0.60;0.60;;;6.30;99.90;;;;;;5054931;28;20648;-63
2023/12/21 03:43:34;;;;;;;0.88;0.88;;;6.30;99.90;;;;;;5054573;28;20718;-63
2023/12/21 03:46:01;;;;;;;0.90;0.90;;;6.30;99.90;;;;;;5054139;28;20206;-63
2023/12/21 03:48:27;;;;;;;1.55;1.02;;;6.30;99.90;;;;;;5054104;28;20236;-63
2023/12/21 03:50:55;;;;;;;0.70;0.70;;;6.30;99.90;;;;;;5054387;28;20301;-63
2023/12/21 03:53:22;;;;;;;0.88;0.88;;;6.30;99.90;;;;;;5054535;28;20212;-63
2023/12/21 03:55:49;;;;;;;0.70;0.70;;;6.30;99.90;;;;;;5053488;28;20206;-63
2023/12/21 03:58:16;;;;;;;0.75;0.75;;;6.30;99.90;;;;;;5053871;28;20744;-63
2023/12/21 04:00:43;;;;;;;1.00;1.00;;;6.40;99.90;;;;;;5054268;28;20216;-63
2023/12/21 04:03:09;;;;;;;1.17;1.17;;;6.30;99.90;;;;;;5054354;28;20641;-63
2023/12/21 04:05:38;;;;;;;1.67;0.90;;;6.40;99.90;;;;;;5054101;28;20207;-63
2023/12/21 04:08:07;;;;;;;1.45;0.80;;;6.40;99.90;;;;;;5053693;28;20639;-63
2023/12/21 04:10:34;;;;;;;1.05;1.05;;;6.40;99.90;;;;;;5054161;28;20298;-63
2023/12/21 04:13:01;;;;;;;1.17;1.08;;;6.40;99.90;;;;;;5054048;28;20300;-63
2023/12/21 04:15:28;;;;;;;1.42;1.33;;;6.40;99.90;;;;;;5054095;28;20211;-63
2023/12/21 04:17:54;;;;;;;0.57;0.57;;;6.40;99.90;;;;;;5053593;28;20712;-64
2023/12/21 04:20:21;;;;;;;2.25;1.17;;;6.40;99.90;;;;;;5054015;28;20210;-63
2023/12/21 04:22:48;;;;;;;0.70;0.70;;;6.40;99.90;;;;;;5053862;28;20756;-63
2023/12/21 04:25:16;;;;;;;1.40;1.23;;;6.40;99.90;;;;;;5053874;28;20206;-64
2023/12/21 04:27:43;;;;;;;0.75;0.75;;;6.40;99.90;;;;;;5053359;28;20226;-63
2023/12/21 04:30:11;;;;;;;0.90;0.90;;;6.40;99.90;;;;;;5053517;28;20218;-63
2023/12/21 04:32:39;;;;;;;0.80;0.80;;;6.40;99.90;;;;;;5053902;28;20242;-63
2023/12/21 04:35:10;;;;;;;0.70;0.70;;;6.40;99.90;;;;;;5053593;28;20293;-63
2023/12/21 04:37:36;;;;;;;0.95;0.80;;;6.40;99.90;;;;;;5053598;28;20268;-63
2023/12/21 04:40:04;;;;;;;0.60;0.60;;;6.40;99.90;;;;;;5052372;28;20217;-63
2023/12/21 04:42:32;;;;;;;0.82;0.80;;;6.50;99.90;;;;;;5053618;28;20237;-63
2023/12/21 04:44:59;;;;;;;2.45;1.30;;;6.50;99.90;;;;;;5053576;28;20202;-63
2023/12/21 04:47:26;;;;;;;0.63;0.50;;;6.40;99.90;;;;;;5053116;28;20226;-64
2023/12/21 04:49:53;;;;;;;2.15;0.90;;;6.40;99.90;;;;;;5053142;28;20209;-63
2023/12/21 04:52:20;;;;;;;0.70;0.70;;;6.50;99.90;;;;;;5053187;28;20214;-63
2023/12/21 04:54:47;;;;;;;0.60;0.60;;;6.50;99.90;;;;;;5053227;28;20282;-63
2023/12/21 04:57:14;;;;;;;0.50;0.50;;;6.50;99.90;;;;;;5053314;28;20213;-63
2023/12/21 04:59:43;;;;;;;0.60;0.60;;;6.50;99.90;;;;;;5053050;28;20795;-63
2023/12/21 05:02:10;;;;;;;1.10;0.77;;;6.50;99.90;;;;;;5053232;28;20310;-63
2023/12/21 05:04:37;;;;;;;0.40;0.40;;;6.50;99.90;;;;;;5053001;28;20203;-63
2023/12/21 05:07:08;;;;;;;0.55;0.55;;;6.50;99.90;;;;;;5052700;28;20572;-63
2023/12/21 05:09:35;;;;;;;0.70;0.63;;;6.50;99.90;;;;;;5052679;28;20238;-63
2023/12/21 05:12:02;;;;;;;0.68;0.68;;;6.50;99.90;;;;;;5053221;28;20207;-63
2023/12/21 05:14:29;;;;;;;0.75;0.75;;;6.50;99.90;;;;;;5052956;28;20220;-63
2023/12/21 05:16:57;;;;;;;0.60;0.55;;;6.60;99.90;;;;;;5052859;28;20568;-63
2023/12/21 05:19:24;;;;;;;0.60;0.60;;;6.50;99.90;;;;;;5052416;28;20237;-63
2023/12/21 05:21:51;;;;;;;0.65;0.65;;;6.60;99.90;;;;;;5052972;28;20228;-63
2023/12/21 05:24:18;;;;;;;0.77;0.65;;;6.60;99.90;;;;;;5052671;28;20228;-63
2023/12/21 05:26:45;;;;;;;0.73;0.65;;;6.50;99.90;;;;;;5052517;28;20230;-63
2023/12/21 05:29:12;;;;;;;0.82;0.50;;;6.60;99.90;;;;;;5052500;28;20230;-63
2023/12/21 05:31:38;;;;;;;0.60;0.60;;;6.60;99.90;;;;;;5052596;28;20706;-63
2023/12/21 05:34:07;;;;;;;0.55;0.55;;;6.60;99.90;;;;;;5052709;28;20210;-64
2023/12/21 05:36:33;;;;;;;0.57;0.57;;;6.60;99.90;;;;;;5053293;28;20216;-64
2023/12/21 05:39:01;;;;;;;0.45;0.45;;;6.60;99.90;;;;;;5052311;28;20230;-64
2023/12/21 05:41:28;;;;;;;0.52;0.40;;;6.60;99.90;;;;;;5052340;28;20211;-64
2023/12/21 05:43:55;;;;;;;0.60;0.60;;;6.60;99.90;;;;;;5052538;28;20593;-63
2023/12/21 05:46:22;;;;;;;0.70;0.70;;;6.60;99.90;;;;;;5052186;28;20202;-64
2023/12/21 05:48:49;;;;;;;0.50;0.50;;;6.60;99.90;;;;;;5052175;28;20310;-63
2023/12/21 05:51:17;;;;;;;0.50;0.50;;;6.60;99.90;;;;;;5052226;28;20206;-64
2023/12/21 05:53:44;;;;;;;2.88;0.70;;;6.60;99.90;;;;;;5052435;28;20213;-63
2023/12/21 05:56:11;;;;;;;0.40;0.40;;;6.60;99.90;;;;;;5052270;28;20723;-64
2023/12/21 05:58:38;;;;;;;2.70;0.60;;;6.60;99.90;;;;;;5051973;28;20293;-63
2023/12/21 06:01:05;;;;;;;1.20;0.60;;;6.60;99.90;;;;;;5051752;28;20254;-63
2023/12/21 06:03:32;;;;;;;0.32;0.32;;;6.60;99.90;;;;;;5051360;28;20204;-63
2023/12/21 06:05:59;;;;;;;4.10;0.73;;;6.60;99.90;;;;;;5051857;28;20229;-63
2023/12/21 06:08:27;;;;;;;0.40;0.40;;;6.60;99.90;;;;;;5079979;22;20320;-66
2023/12/21 06:10:54;;;;;;;0.40;0.40;;;6.70;99.90;;;;;;5071508;28;20598;-66
2023/12/21 06:13:21;;;;;;;0.43;0.43;;;6.70;99.90;;;;;;5071676;28;20216;-66
2023/12/21 06:15:47;;;;;;;0.70;0.70;;;6.70;99.90;;;;;;5071734;28;20284;-66
2023/12/21 06:18:14;;;;;;;0.60;0.60;;;6.70;99.90;;;;;;5070824;28;20217;-66
2023/12/21 06:20:41;;;;;;;0.40;0.40;;;6.70;99.90;;;;;;5071356;28;20206;-65
2023/12/21 06:23:08;;;;;;;0.70;0.60;;;6.70;99.90;;;;;;5071845;28;20205;-65
2023/12/21 06:25:36;;;;;;;0.98;0.80;;;6.70;99.90;;;;;;5071733;28;20227;-66
2023/12/21 06:28:03;;;;;;;1.08;0.63;;;6.70;99.90;;;;;;5071086;28;20232;-65
2023/12/21 06:30:30;;;;;;;1.15;0.70;;;6.70;99.90;;;;;;5071728;28;20301;-66
2023/12/21 06:32:57;;;;;;;0.80;0.80;;;6.70;99.90;;;;;;5071353;28;20209;-66
2023/12/21 06:35:24;;;;;;;0.70;0.70;;;6.70;99.90;;;;;;5071508;28;20205;-66
2023/12/21 06:37:50;;;;;;;0.80;0.80;;;6.70;99.90;;;;;;5071461;28;20201;-65
2023/12/21 06:40:17;;;;;;;0.90;0.90;;;6.70;99.90;;;;;;5071400;28;20296;-66
2023/12/21 06:42:45;;;;;;;0.50;0.50;;;6.80;99.90;;;;;;5071600;28;20206;-65
2023/12/21 06:45:12;;;;;;;0.82;0.82;;;6.80;99.90;;;;;;5071329;28;20208;-65
2023/12/21 06:47:39;;;;;;;0.60;0.60;;;6.80;99.90;;;;;;5071334;28;20226;-65
2023/12/21 06:50:07;;;;;;;0.98;0.90;;;6.80;99.90;;;;;;5071218;28;20643;-66
2023/12/21 06:52:34;;;;;;;1.00;1.00;;;6.80;99.90;;;;;;5071459;28;20633;-66
2023/12/21 06:55:01;;;;;;;3.90;3.50;;;6.90;99.90;;;;;;5071424;28;20202;-65
2023/12/21 06:57:28;;;;;;;3.72;3.17;;;6.90;99.90;;;;;;5071554;28;20643;-65
2023/12/21 06:59:56;;;;;;;6.68;6.05;;;6.90;99.90;;;;;;5070638;28;20222;-66
2023/12/21 07:02:23;;;;;;;1.23;1.20;;;6.90;99.90;;;;;;5071018;28;20212;-65
2023/12/21 07:04:50;;;;;;;3.03;2.92;;;6.90;99.90;;;;;;5070788;28;20202;-65
2023/12/21 07:07:17;;;;;;;1.17;1.08;;;6.90;99.90;;;;;;5071182;28;20226;-66
2023/12/21 07:09:43;;;;;;;0.95;0.95;;;6.90;99.90;;;;;;5071065;28;20245;-65
2023/12/21 07:12:10;;;;;;;2.10;2.00;;;6.90;99.90;;;;;;5071425;28;20300;-66
2023/12/21 07:14:39;;;;;;;1.30;1.23;;;7.00;99.90;;;;;;5071097;28;20212;-65
2023/12/21 07:17:08;;;;;;;1.80;1.70;;;7.00;99.90;;;;;;5071192;28;20209;-66
2023/12/21 07:19:37;;;;;;;1.80;1.70;;;7.00;99.90;;;;;;5071021;28;20240;-66
2023/12/21 07:22:04;;;;;;;1.30;1.30;;;7.00;99.90;;;;;;5071433;28;20210;-65
2023/12/21 07:24:31;;;;;;;0.90;0.90;;;7.00;99.90;;;;;;5071130;28;20205;-65
2023/12/21 07:26:58;;;;;;;0.93;0.93;;;;;;;;;;5070819;28;20217;-66
2023/12/21 07:29:25;;;;;;;1.17;1.17;;;7.10;99.90;;;;;;5070814;28;20317;-65
2023/12/21 07:31:52;;;;;;;1.35;1.25;;;7.10;99.90;;;;;;5074009;28;20208;-65
2023/12/21 07:34:20;;;;;;;1.38;1.20;;;7.10;99.90;;;;;;5074940;28;20292;-65
2023/12/21 07:36:47;;;;;;;1.48;1.48;;;7.10;99.90;;;;;;5074861;28;20746;-65
2023/12/21 07:39:14;;;;;;;1.35;1.25;;;7.20;99.90;;;;;;5074431;28;20222;-65
2023/12/21 07:41:41;;;;;;;1.08;0.90;;;7.20;99.90;;;;;;5074621;28;20213;-65
2023/12/21 07:44:08;;;;;;;0.80;0.80;;;7.20;99.90;;;;;;5074957;28;20248;-65
2023/12/21 07:46:34;;;;;;;1.95;0.85;;;7.30;99.90;;;;;;5074689;28;20241;-66
2023/12/21 07:49:01;;;;;;;0.70;0.70;;;7.30;99.90;;;;;;5074173;28;20236;-65
2023/12/21 07:51:29;;;;;;;0.52;0.50;;;7.30;99.90;;;;;;5074568;28;20293;-65
2023/12/21 07:53:56;;;;;;;0.60;0.60;;;7.30;99.90;;;;;;5074555;28;20205;-65
2023/12/21 07:56:23;;;;;;;0.68;0.68;;;7.40;99.90;;;;;;5074534;28;20201;-66
2023/12/21 07:58:50;;;;;;;0.35;0.35;;;7.40;99.90;;;;;;5074065;28;20222;-65
2023/12/21 08:01:16;;;;;;;1.30;1.05;;;7.40;99.90;;;;;;5074422;28;20593;-66
2023/12/21 08:03:43;;;;;;;0.70;0.70;;;7.50;99.90;;;;;;5074444;28;20292;-66
2023/12/21 08:06:20;;;;;;;1.73;1.42;;;7.50;99.90;;;;;;5074280;28;20216;-65
2023/12/21 08:08:49;;;;;;;0.70;0.70;;;7.50;99.90;;;;;;5073492;28;20324;-66
2023/12/21 08:11:16;;;;;;;0.55;0.50;;;7.50;99.90;;;;;;5074495;28;20210;-65
2023/12/21 08:13:43;;;;;;;0.80;0.80;;;7.50;99.90;;;;;;5074071;28;20296;-66
2023/12/21 08:16:10;;;;;;;0.55;0.55;;;7.50;99.90;;;;;;5074284;28;20234;-66
2023/12/21 08:18:37;;;;;;;0.45;0.45;;;7.60;99.90;;;;;;5073646;28;20217;-66
2023/12/21 08:21:04;;;;;;;0.82;0.80;;;7.60;99.90;;;;;;5073935;28;20211;-66
2023/12/21 08:23:30;;;;;;;4.53;0.82;;;7.60;99.90;;;;;;5074066;28;20216;-66
2023/12/21 08:25:59;;;;;;;0.93;0.60;;;7.60;99.90;;;;;;5074016;28;20205;-66
2023/12/21 08:28:29;;;;;;;0.50;0.50;;;7.60;99.90;;;;;;5073133;28;20221;-66
2023/12/21 08:30:55;;;;;;;0.43;0.43;;;7.70;99.90;;;;;;5073710;28;20214;-66
2023/12/21 08:33:22;;;;;;;0.98;0.90;;;7.60;99.90;;;;;;5073791;28;20302;-65
2023/12/21 08:35:49;;;;;;;0.43;0.43;;;7.70;99.90;;;;;;5073174;28;20785;-65
2023/12/21 08:38:16;;;;;;;0.85;0.50;;;7.70;99.90;;;;;;5073638;28;20234;-66
2023/12/21 08:40:43;;;;;;;0.50;0.50;;;7.70;99.90;;;;;;5072049;28;20211;-65
2023/12/21 08:43:11;;;;;;;0.30;0.30;;;7.70;99.90;;;;;;5072801;28;20684;-66
2023/12/21 08:45:39;;;;;;;0.40;0.38;;;7.70;99.90;;;;;;5065896;28;20735;-65
2023/12/21 08:48:06;;;;;;;0.70;0.60;;;7.70;99.90;;;;;;5063174;28;20230;-66
2023/12/21 08:50:33;;;;;;;0.40;0.40;;;7.80;99.90;;;;;;5071795;28;20767;-65
2023/12/21 08:53:00;;;;;;;0.73;0.63;;;7.80;99.90;;;;;;5072869;28;20831;-68
2023/12/21 08:55:28;;;;;;;0.50;0.43;;;7.80;99.90;;;;;;5068097;28;20241;-68
2023/12/21 08:57:57;;;;;;;0.82;0.82;;;7.80;99.90;;;;;;5070999;28;20193;-67
2023/12/21 09:00:25;;;;;;;1.23;0.68;;;7.80;99.90;;;;;;5071784;28;20210;-69
2023/12/21 09:02:52;;;;;;;2.47;1.02;;;7.80;99.90;;;;;;5067853;28;20210;-68
2023/12/21 09:05:19;;;;;;;0.63;0.63;;;7.80;99.90;;;;;;5073032;28;20202;-69
2023/12/21 09:07:45;;;;;;;0.60;0.60;;;7.80;99.90;;;;;;5072222;28;20293;-68
2023/12/21 09:10:12;;;;;;;1.52;0.60;;;7.90;99.90;;;;;;5072701;28;20208;-68
2023/12/21 09:12:39;;;;;;;0.68;0.68;;;7.90;99.90;;;;;;5072845;28;20600;-68
2023/12/21 09:15:08;;;;;;;0.55;0.40;;;7.80;99.90;;;;;;5084299;28;20205;-68
2023/12/21 09:17:36;;;;;;;0.40;0.35;;;7.80;99.90;;;;;;5073901;28;20209;-68
2023/12/21 09:20:03;;;;;;;0.30;0.30;;;7.90;99.90;;;;;;5072729;28;20205;-68
2023/12/21 09:22:30;;;;;;;0.30;0.30;;;7.90;99.90;;;;;;5071097;28;20212;-67
2023/12/21 09:24:57;;;;;;;0.30;0.28;;;7.90;99.90;;;;;;5071865;28;20755;-68
2023/12/21 09:27:27;;;;;;;0.30;0.30;;;7.90;99.90;;;;;;5071733;28;20645;-67
2023/12/21 09:29:53;;;;;;;0.40;0.40;;;7.90;99.90;;;;;;5070476;28;20229;-68
2023/12/21 09:32:20;;;;;;;0.40;0.30;;;7.90;99.90;;;;;;5071781;28;20237;-68
2023/12/21 09:34:48;;;;;;;0.60;0.60;;;7.90;99.90;;;;;;5071480;28;20205;-68
2023/12/21 09:37:16;;;;;;;0.40;0.40;;;7.90;99.90;;;;;;5072044;28;20850;-67
2023/12/21 09:39:43;;;;;;;1.10;1.10;;;7.90;99.90;;;;;;5071878;28;20225;-67
2023/12/21 09:42:15;;;;;;;0.77;0.70;;;8.00;99.90;;;;;;5072037;28;20293;-69
2023/12/21 09:44:46;;;;;;;0.75;0.75;;;7.90;99.90;;;;;;5072193;28;20642;-68
2023/12/21 09:47:13;;;;;;;1.25;0.50;;;7.90;99.90;;;;;;5056720;28;20210;-68
2023/12/21 09:49:41;;;;;;;0.60;0.60;;;7.90;99.90;;;;;;5072976;28;20224;-68
2023/12/21 09:52:09;;;;;;;0.40;0.40;;;8.00;99.90;;;;;;5071701;28;20360;-68
2023/12/21 09:54:38;;;;;;;0.60;0.60;;;7.90;99.90;;;;;;5070398;28;20220;-68
2023/12/21 09:57:06;;;;;;;0.40;0.40;;;7.90;99.90;;;;;;5071132;28;20292;-69
2023/12/21 09:59:34;;;;;;;0.82;0.82;;;7.80;99.90;;;;;;5071271;28;20235;-69
2023/12/21 10:02:08;;;;;;;0.40;0.40;;;7.80;99.90;;;;;;5071235;28;20217;-69
2023/12/21 10:04:35;;;;;;;1.05;1.05;;;7.80;99.90;;;;;;5071042;28;20213;-69
2023/12/21 10:07:02;;;;;;;0.90;0.40;;;7.80;99.90;;;;;;5071238;28;20206;-68
2023/12/21 10:09:31;;;;;;;0.60;0.50;;;7.80;99.90;;;;;;5070217;28;20272;-69
2023/12/21 10:12:01;;;;;;;0.40;0.40;;;7.90;99.90;;;;;;5071176;28;20208;-68
2023/12/21 10:14:29;;;;;;;0.40;0.40;;;7.90;99.90;;;;;;5071507;28;20201;-69
2023/12/21 10:16:56;;;;;;;1.13;1.00;;;7.90;99.90;;;;;;5071029;28;20216;-68
2023/12/21 10:19:23;;;;;;;0.50;0.50;;;8.00;99.90;;;;;;5070306;28;20218;-68
2023/12/21 10:21:50;;;;;;;0.70;0.57;;;7.90;99.90;;;;;;5071441;28;20286;-69
2023/12/21 10:24:17;;;;;;;0.22;0.22;;;8.00;99.90;;;;;;5071337;28;20324;-68
2023/12/21 10:26:46;;;;;;;0.40;0.40;;;8.00;99.90;;;;;;5072078;28;20300;-68
2023/12/21 10:29:15;;;;;;;0.73;0.40;;;8.00;99.90;;;;;;5070592;28;20320;-67
2023/12/21 10:31:44;;;;;;;0.30;0.30;;;8.10;99.90;;;;;;5071248;28;20212;-68
2023/12/21 10:34:10;;;;;;;0.25;0.25;;;8.10;99.90;;;;;;5070839;28;20280;-68
2023/12/21 10:36:39;;;;;;;0.30;0.25;;;8.20;99.90;;;;;;5065040;28;20211;-68
2023/12/21 10:39:07;;;;;;;0.30;0.30;;;8.20;99.90;;;;;;5073980;28;20300;-69
2023/12/21 10:41:34;;;;;;;0.43;0.40;;;8.20;99.90;;;;;;5071002;28;20360;-69
2023/12/21 10:44:02;;;;;;;0.60;0.60;;;8.30;99.90;;;;;;5070650;28;20583;-68
2023/12/21 10:46:31;;;;;;;0.65;0.50;;;8.30;99.90;;;;;;5070912;28;20204;-69
2023/12/21 10:48:59;;;;;;;0.32;0.30;;;8.30;99.90;;;;;;5070058;28;20236;-68
2023/12/21 10:51:28;;;;;;;0.30;0.30;;;8.40;99.90;;;;;;5070724;28;20221;-69
2023/12/21 10:53:56;;;;;;;0.65;0.60;;;8.40;99.90;;;;;;5071303;28;20212;-69
2023/12/21 10:56:24;;;;;;;0.30;0.30;;;8.50;99.90;;;;;;5071099;28;20292;-68
2023/12/21 10:58:53;;;;;;;0.32;0.32;;;8.50;99.90;;;;;;5070714;28;20324;-68
2023/12/21 11:01:22;;;;;;;0.60;0.40;;;8.50;99.90;;;;;;5071229;28;20292;-68
2023/12/21 11:03:50;;;;;;;0.38;0.38;;;8.40;99.90;;;;;;5069135;28;20551;-68
2023/12/21 11:06:18;;;;;;;0.20;0.20;;;8.40;99.90;;;;;;5076511;28;20324;-68
2023/12/21 11:08:45;;;;;;;0.40;0.40;;;8.50;99.90;;;;;;5082099;28;20324;-68
2023/12/21 11:11:13;;;;;;;0.60;0.60;;;8.40;99.90;;;;;;5074024;28;20300;-68
2023/12/21 11:13:41;;;;;;;0.30;0.30;;;8.40;99.90;;;;;;5074096;28;20574;-69
2023/12/21 11:16:09;;;;;;;0.35;0.35;;;8.40;99.90;;;;;;5081944;28;20205;-68
2023/12/21 11:18:39;;;;;;;0.75;0.32;;;8.40;99.90;;;;;;5082770;28;20248;-68
2023/12/21 11:21:07;;;;;;;0.50;0.50;;;8.30;99.90;;;;;;5081375;28;20201;-67
2023/12/21 11:23:40;;;;;;;2.15;1.38;;;8.30;99.90;;;;;;5072831;28;20210;-67
2023/12/21 11:26:07;;;;;;;0.40;0.40;;;8.30;99.90;;;;;;5074502;28;20296;-69
2023/12/21 11:28:35;;;;;;;0.57;0.55;;;8.30;99.90;;;;;;5073246;28;20245;-68
2023/12/21 11:31:12;;;;;;;0.60;0.60;;;8.20;99.90;;;;;;5074274;28;20206;-68
2023/12/21 11:33:41;;;;;;;0.35;0.35;;;8.20;99.90;;;;;;5075349;28;20205;-69
2023/12/21 11:36:09;;;;;;;0.40;0.40;;;8.20;99.90;;;;;;5079611;28;20201;-68
2023/12/21 11:38:45;;;;;;;0.45;0.45;;;8.10;99.90;;;;;;5070911;28;20221;-68
2023/12/21 11:41:12;;;;;;;0.70;0.70;;;8.20;99.90;;;;;;5075452;28;20213;-69
2023/12/21 11:43:38;;;;;;;1.67;0.90;;;8.20;99.90;;;;;;5072068;28;20292;-68
2023/12/21 11:46:05;;;;;;;0.90;0.90;;;8.20;99.90;;;;;;5072548;28;20284;-69
2023/12/21 11:48:33;;;;;;;0.60;0.60;;;8.20;99.90;;;;;;5063282;28;20252;-68
2023/12/21 11:51:04;;;;;;;1.48;0.60;;;8.20;99.90;;;;;;5071562;28;20209;-69
2023/12/21 11:53:34;;;;;;;0.63;0.63;;;8.20;99.90;;;;;;5071882;28;20696;-69
2023/12/21 11:56:00;;;;;;;0.50;0.50;;;8.20;99.90;;;;;;5073314;28;20209;-69
2023/12/21 11:58:27;;;;;;;2.78;2.58;;;8.20;99.90;;;;;;5072883;28;20217;-69
2023/12/21 12:00:55;;;;;;;0.57;0.57;;;8.20;99.90;;;;;;5073802;28;20576;-69
2023/12/21 12:03:23;;;;;;;0.90;0.50;;;8.10;99.90;;;;;;5073300;28;20210;-69
2023/12/21 12:05:53;;;;;;;0.70;0.70;;;8.20;99.90;;;;;;5074028;28;20198;-69
2023/12/21 12:08:22;;;;;;;0.50;0.40;;;8.20;99.90;;;;;;5094750;22;20293;-64
2023/12/21 12:10:50;;;;;;;0.50;0.50;;;8.20;99.90;;;;;;5073721;28;20222;-65
2023/12/21 12:13:19;;;;;;;0.30;0.30;;;8.20;99.90;;;;;;5073150;28;20289;-64
2023/12/21 12:15:47;;;;;;;0.40;0.40;;;8.20;99.90;;;;;;5058746;28;20212;-65
2023/12/21 12:18:14;;;;;;;0.40;0.40;;;8.30;99.90;;;;;;5074614;28;20206;-64
2023/12/21 12:20:45;;;;;;;0.40;0.40;;;8.20;99.90;;;;;;5093055;28;20229;-64
2023/12/21 12:23:12;;;;;;;0.35;0.35;;;8.30;99.90;;;;;;5092376;28;20717;-64
2023/12/21 12:25:42;;;;;;;0.30;0.30;;;8.30;99.90;;;;;;5087845;28;20288;-65
2023/12/21 12:28:09;;;;;;;0.30;0.30;;;8.40;99.90;;;;;;5088031;28;20610;-64
2023/12/21 12:30:37;;;;;;;0.60;0.30;;;8.40;99.90;;;;;;5093370;28;20224;-65
2023/12/21 12:33:05;;;;;;;2.28;1.85;;;8.40;99.90;;;;;;5087691;28;20205;-64
2023/12/21 12:35:34;;;;;;;0.75;0.30;;;8.40;99.90;;;;;;5093809;28;20201;-64
2023/12/21 12:38:01;;;;;;;0.38;0.38;;;8.40;99.90;;;;;;5093568;28;20209;-64
2023/12/21 12:40:28;;;;;;;0.50;0.50;;;8.40;99.90;;;;;;5093844;28;20200;-65
2023/12/21 12:42:57;;;;;;;0.30;0.30;;;8.40;99.90;;;;;;5093412;28;20215;-65
2023/12/21 12:45:25;;;;;;;0.63;0.63;;;8.40;99.90;;;;;;5093559;28;20288;-64
2023/12/21 12:47:52;;;;;;;0.30;0.30;;;8.50;99.90;;;;;;5093340;28;20641;-64
2023/12/21 12:50:23;;;;;;;0.20;0.20;;;8.50;99.90;;;;;;5093536;28;20243;-64
2023/12/21 12:52:50;;;;;;;1.10;0.50;;;8.50;99.90;;;;;;5093433;28;20209;-63
2023/12/21 12:55:18;;;;;;;0.40;0.25;;;8.50;99.90;;;;;;5093322;28;20215;-64
2023/12/21 12:57:46;;;;;;;0.43;0.25;;;8.50;99.90;;;;;;5093184;28;20231;-65